sensor_id;sensor_type;location;lat;lon;timestamp;pressure;altitude;pressure_sealevel;temperature;humidity
39265;BME280;42646;51.910;7.724;2023-08-17T00:02:15;101297.13;;;19.21;90.74
39265;BME280;42646;51.910;7.724;2023-08-17T00:04:44;101297.13;;;19.21;90.61
39265;BME280;42646;51.910;7.724;2023-08-17T00:07:12;101296.47;;;19.19;90.66
39265;BME280;42646;51.910;7.724;2023-08-17T00:09:40;101288.38;;;19.19;91.33
39265;BME280;42646;51.910;7.724;2023-08-17T00:12:08;101295.81;;;19.17;91.35
39265;BME280;42646;51.910;7.724;2023-08-17T00:14:36;101306.78;;;19.15;91.12
39265;BME280;42646;51.910;7.724;2023-08-17T00:17:06;101307.97;;;19.13;91.35
39265;BME280;42646;51.910;7.724;2023-08-17T00:19:35;101316.25;;;19.11;91.47
39265;BME280;42646;51.910;7.724;2023-08-17T00:22:03;101331.78;;;19.09;91.59
39265;BME280;42646;51.910;7.724;2023-08-17T00:24:31;101325.69;;;19.07;91.74
39265;BME280;42646;51.910;7.724;2023-08-17T00:26:59;101322.16;;;19.07;92.22
39265;BME280;42646;51.910;7.724;2023-08-17T00:29:27;101319.66;;;19.05;92.06
39265;BME280;42646;51.910;7.724;2023-08-17T00:31:56;101317.78;;;19.06;91.95
39265;BME280;42646;51.910;7.724;2023-08-17T00:34:25;101305.50;;;19.03;91.98
39265;BME280;42646;51.910;7.724;2023-08-17T00:36:54;101317.16;;;19.04;92.04
39265;BME280;42646;51.910;7.724;2023-08-17T00:39:22;101322.53;;;19.04;92.25
39265;BME280;42646;51.910;7.724;2023-08-17T00:41:50;101330.78;;;19.02;92.42
39265;BME280;42646;51.910;7.724;2023-08-17T00:44:18;101328.09;;;19.02;92.42
39265;BME280;42646;51.910;7.724;2023-08-17T00:46:47;101324.75;;;19.00;92.12
39265;BME280;42646;51.910;7.724;2023-08-17T00:49:18;101321.03;;;19.01;92.38
39265;BME280;42646;51.910;7.724;2023-08-17T00:51:48;101326.59;;;19.00;92.53
39265;BME280;42646;51.910;7.724;2023-08-17T00:54:21;101329.47;;;18.98;91.99
39265;BME280;42646;51.910;7.724;2023-08-17T00:56:52;101321.38;;;18.98;92.34
39265;BME280;42646;51.910;7.724;2023-08-17T00:59:21;101318.69;;;18.98;92.13
39265;BME280;42646;51.910;7.724;2023-08-17T01:01:51;101330.31;;;18.99;92.45
39265;BME280;42646;51.910;7.724;2023-08-17T01:04:19;101328.66;;;18.98;92.42
39265;BME280;42646;51.910;7.724;2023-08-17T01:06:49;101331.50;;;18.96;92.32
39265;BME280;42646;51.910;7.724;2023-08-17T01:09:17;101338.75;;;18.95;92.59
39265;BME280;42646;51.910;7.724;2023-08-17T01:12:07;101350.56;;;18.94;92.57
39265;BME280;42646;51.910;7.724;2023-08-17T01:14:51;101358.00;;;18.92;92.95
39265;BME280;42646;51.910;7.724;2023-08-17T01:17:26;101358.00;;;18.92;93.46
39265;BME280;42646;51.910;7.724;2023-08-17T01:19:58;101358.00;;;18.92;95.09
39265;BME280;42646;51.910;7.724;2023-08-17T01:22:35;101344.84;;;18.89;96.50
39265;BME280;42646;51.910;7.724;2023-08-17T01:25:04;101350.59;;;18.86;98.00
39265;BME280;42646;51.910;7.724;2023-08-17T01:27:37;101351.13;;;18.82;98.94
39265;BME280;42646;51.910;7.724;2023-08-17T01:30:06;101357.53;;;18.81;99.78
39265;BME280;42646;51.910;7.724;2023-08-17T01:32:37;101357.03;;;18.77;100.00
39265;BME280;42646;51.910;7.724;2023-08-17T01:35:11;101351.81;;;18.76;100.00
39265;BME280;42646;51.910;7.724;2023-08-17T01:37:43;101345.09;;;18.72;100.00
39265;BME280;42646;51.910;7.724;2023-08-17T01:40:15;101343.59;;;18.69;100.00
39265;BME280;42646;51.910;7.724;2023-08-17T01:42:44;101338.50;;;18.66;100.00
39265;BME280;42646;51.910;7.724;2023-08-17T01:45:14;101344.41;;;18.61;100.00
39265;BME280;42646;51.910;7.724;2023-08-17T01:47:43;101347.28;;;18.60;100.00
39265;BME280;42646;51.910;7.724;2023-08-17T01:50:13;101353.38;;;18.54;100.00
39265;BME280;42646;51.910;7.724;2023-08-17T01:52:43;101350.34;;;18.49;100.00
39265;BME280;42646;51.910;7.724;2023-08-17T01:55:10;101343.97;;;18.41;100.00
39265;BME280;42646;51.910;7.724;2023-08-17T01:57:40;101346.16;;;18.38;100.00
39265;BME280;42646;51.910;7.724;2023-08-17T02:00:09;101338.97;;;18.30;100.00
39265;BME280;42646;51.910;7.724;2023-08-17T02:02:42;101327.84;;;18.25;100.00
39265;BME280;42646;51.910;7.724;2023-08-17T02:05:11;101324.84;;;18.20;100.00
39265;BME280;42646;51.910;7.724;2023-08-17T02:07:39;101329.91;;;18.15;100.00
39265;BME280;42646;51.910;7.724;2023-08-17T02:10:07;101332.09;;;18.11;100.00
39265;BME280;42646;51.910;7.724;2023-08-17T02:12:34;101338.00;;;18.07;100.00
39265;BME280;42646;51.910;7.724;2023-08-17T02:15:05;101335.81;;;18.02;100.00
39265;BME280;42646;51.910;7.724;2023-08-17T02:17:33;101345.06;;;18.00;100.00
39265;BME280;42646;51.910;7.724;2023-08-17T02:20:01;101326.72;;;17.95;100.00
39265;BME280;42646;51.910;7.724;2023-08-17T02:22:31;101313.78;;;17.91;100.00
39265;BME280;42646;51.910;7.724;2023-08-17T02:25:00;101301.50;;;17.88;100.00
39265;BME280;42646;51.910;7.724;2023-08-17T02:27:31;101295.47;;;17.86;100.00
39265;BME280;42646;51.910;7.724;2023-08-17T02:29:59;101294.63;;;17.85;100.00
39265;BME280;42646;51.910;7.724;2023-08-17T02:32:29;101288.56;;;17.83;100.00
39265;BME280;42646;51.910;7.724;2023-08-17T02:34:57;101294.94;;;17.82;100.00
39265;BME280;42646;51.910;7.724;2023-08-17T02:37:25;101294.47;;;17.79;100.00
39265;BME280;42646;51.910;7.724;2023-08-17T02:39:54;101284.22;;;17.74;100.00
39265;BME280;42646;51.910;7.724;2023-08-17T02:42:22;101283.50;;;17.72;100.00
39265;BME280;42646;51.910;7.724;2023-08-17T02:44:53;101282.16;;;17.68;100.00
39265;BME280;42646;51.910;7.724;2023-08-17T02:47:20;101289.06;;;17.62;100.00
39265;BME280;42646;51.910;7.724;2023-08-17T02:49:49;101295.78;;;17.58;100.00
39265;BME280;42646;51.910;7.724;2023-08-17T02:52:17;101296.28;;;17.54;100.00
39265;BME280;42646;51.910;7.724;2023-08-17T02:54:45;101306.56;;;17.50;100.00
39265;BME280;42646;51.910;7.724;2023-08-17T02:57:14;101306.88;;;17.47;100.00
39265;BME280;42646;51.910;7.724;2023-08-17T02:59:45;101315.94;;;17.46;100.00
39265;BME280;42646;51.910;7.724;2023-08-17T03:02:13;101315.28;;;17.44;100.00
39265;BME280;42646;51.910;7.724;2023-08-17T03:04:41;101317.47;;;17.41;100.00
39265;BME280;42646;51.910;7.724;2023-08-17T03:07:11;101319.63;;;17.37;100.00
39265;BME280;42646;51.910;7.724;2023-08-17T03:09:40;101314.59;;;17.34;100.00
39265;BME280;42646;51.910;7.724;2023-08-17T03:12:08;101319.31;;;17.32;100.00
39265;BME280;42646;51.910;7.724;2023-08-17T03:14:36;101315.09;;;17.29;100.00
39265;BME280;42646;51.910;7.724;2023-08-17T03:17:04;101317.94;;;17.28;100.00
39265;BME280;42646;51.910;7.724;2023-08-17T03:19:37;101306.34;;;17.27;100.00
39265;BME280;42646;51.910;7.724;2023-08-17T03:22:05;101299.31;;;17.26;100.00
39265;BME280;42646;51.910;7.724;2023-08-17T03:24:34;101302.00;;;17.26;100.00
39265;BME280;42646;51.910;7.724;2023-08-17T03:27:02;101302.81;;;17.27;100.00
39265;BME280;42646;51.910;7.724;2023-08-17T03:29:34;101294.06;;;17.25;100.00
39265;BME280;42646;51.910;7.724;2023-08-17T03:32:02;101296.75;;;17.25;100.00
39265;BME280;42646;51.910;7.724;2023-08-17T03:34:32;101289.69;;;17.24;100.00
39265;BME280;42646;51.910;7.724;2023-08-17T03:37:01;101288.03;;;17.23;100.00
39265;BME280;42646;51.910;7.724;2023-08-17T03:39:29;101277.44;;;17.21;100.00
39265;BME280;42646;51.910;7.724;2023-08-17T03:42:00;101283.00;;;17.20;100.00
39265;BME280;42646;51.910;7.724;2023-08-17T03:44:29;101277.63;;;17.20;100.00
39265;BME280;42646;51.910;7.724;2023-08-17T03:46:57;101271.38;;;17.19;100.00
39265;BME280;42646;51.910;7.724;2023-08-17T03:49:26;101272.38;;;17.18;100.00
39265;BME280;42646;51.910;7.724;2023-08-17T03:51:55;101266.16;;;17.18;100.00
39265;BME280;42646;51.910;7.724;2023-08-17T03:54:24;101255.59;;;17.16;100.00
39265;BME280;42646;51.910;7.724;2023-08-17T03:56:52;101267.53;;;17.14;100.00
39265;BME280;42646;51.910;7.724;2023-08-17T03:59:23;101272.03;;;17.13;100.00
39265;BME280;42646;51.910;7.724;2023-08-17T04:01:52;101276.56;;;17.13;100.00
39265;BME280;42646;51.910;7.724;2023-08-17T04:04:20;101273.03;;;17.12;100.00
39265;BME280;42646;51.910;7.724;2023-08-17T04:06:49;101266.84;;;17.12;100.00
39265;BME280;42646;51.910;7.724;2023-08-17T04:09:16;101265.16;;;17.11;100.00
39265;BME280;42646;51.910;7.724;2023-08-17T04:11:45;101270.00;;;17.07;100.00
39265;BME280;42646;51.910;7.724;2023-08-17T04:14:13;101275.56;;;17.05;100.00
39265;BME280;42646;51.910;7.724;2023-08-17T04:16:48;101273.22;;;17.02;100.00
39265;BME280;42646;51.910;7.724;2023-08-17T04:19:17;101263.63;;;17.00;100.00
39265;BME280;42646;51.910;7.724;2023-08-17T04:22:10;101272.53;;;17.00;100.00
39265;BME280;42646;51.910;7.724;2023-08-17T04:24:38;101269.84;;;17.00;100.00
39265;BME280;42646;51.910;7.724;2023-08-17T04:27:06;101267.50;;;16.97;100.00
39265;BME280;42646;51.910;7.724;2023-08-17T04:29:34;101276.56;;;16.96;100.00
39265;BME280;42646;51.910;7.724;2023-08-17T04:32:05;101281.25;;;16.94;100.00
39265;BME280;42646;51.910;7.724;2023-08-17T04:34:34;101280.41;;;16.94;100.00
39265;BME280;42646;51.910;7.724;2023-08-17T04:37:04;101279.56;;;16.93;100.00
39265;BME280;42646;51.910;7.724;2023-08-17T04:39:32;101279.75;;;16.92;100.00
39265;BME280;42646;51.910;7.724;2023-08-17T04:42:02;101291.50;;;16.91;100.00
39265;BME280;42646;51.910;7.724;2023-08-17T04:44:33;101286.28;;;16.89;100.00
39265;BME280;42646;51.910;7.724;2023-08-17T04:47:01;101290.81;;;16.89;100.00
39265;BME280;42646;51.910;7.724;2023-08-17T04:49:31;101293.34;;;16.90;100.00
39265;BME280;42646;51.910;7.724;2023-08-17T04:52:25;101295.50;;;16.87;100.00
39265;BME280;42646;51.910;7.724;2023-08-17T04:54:54;101289.47;;;16.85;100.00
39265;BME280;42646;51.910;7.724;2023-08-17T04:57:22;101297.53;;;16.85;100.00
39265;BME280;42646;51.910;7.724;2023-08-17T04:59:51;101290.44;;;16.83;100.00
39265;BME280;42646;51.910;7.724;2023-08-17T05:02:19;101299.38;;;16.84;100.00
39265;BME280;42646;51.910;7.724;2023-08-17T05:04:48;101288.63;;;16.84;100.00
39265;BME280;42646;51.910;7.724;2023-08-17T05:07:17;101282.38;;;16.83;100.00
39265;BME280;42646;51.910;7.724;2023-08-17T05:09:46;101292.16;;;16.85;100.00
39265;BME280;42646;51.910;7.724;2023-08-17T05:12:14;101280.72;;;16.82;100.00
39265;BME280;42646;51.910;7.724;2023-08-17T05:14:43;101288.09;;;16.80;100.00
39265;BME280;42646;51.910;7.724;2023-08-17T05:17:11;101288.28;;;16.79;100.00
39265;BME280;42646;51.910;7.724;2023-08-17T05:19:39;101291.81;;;16.79;100.00
39265;BME280;42646;51.910;7.724;2023-08-17T05:22:11;101292.13;;;16.76;100.00
39265;BME280;42646;51.910;7.724;2023-08-17T05:24:39;101293.78;;;16.77;100.00
39265;BME280;42646;51.910;7.724;2023-08-17T05:27:07;101298.19;;;16.78;100.00
39265;BME280;42646;51.910;7.724;2023-08-17T05:29:36;101295.50;;;16.78;100.00
39265;BME280;42646;51.910;7.724;2023-08-17T05:32:29;101290.25;;;16.77;100.00
39265;BME280;42646;51.910;7.724;2023-08-17T05:35:00;101300.00;;;16.78;100.00
39265;BME280;42646;51.910;7.724;2023-08-17T05:37:56;101297.50;;;16.76;100.00
39265;BME280;42646;51.910;7.724;2023-08-17T05:40:25;101301.84;;;16.77;100.00
39265;BME280;42646;51.910;7.724;2023-08-17T05:42:53;101317.84;;;16.79;100.00
39265;BME280;42646;51.910;7.724;2023-08-17T05:45:21;101311.75;;;16.77;100.00
39265;BME280;42646;51.910;7.724;2023-08-17T05:47:49;101309.78;;;16.79;100.00
39265;BME280;42646;51.910;7.724;2023-08-17T05:50:18;101309.78;;;16.79;100.00
39265;BME280;42646;51.910;7.724;2023-08-17T05:53:16;101315.81;;;16.81;100.00
39265;BME280;42646;51.910;7.724;2023-08-17T05:55:47;101311.09;;;16.83;100.00
39265;BME280;42646;51.910;7.724;2023-08-17T05:58:15;101315.34;;;16.86;100.00
39265;BME280;42646;51.910;7.724;2023-08-17T06:00:43;101319.69;;;16.87;100.00
39265;BME280;42646;51.910;7.724;2023-08-17T06:03:11;101323.06;;;16.89;100.00
39265;BME280;42646;51.910;7.724;2023-08-17T06:05:41;101317.38;;;16.92;100.00
39265;BME280;42646;51.910;7.724;2023-08-17T06:08:09;101316.34;;;16.93;100.00
39265;BME280;42646;51.910;7.724;2023-08-17T06:10:40;101315.34;;;16.94;100.00
39265;BME280;42646;51.910;7.724;2023-08-17T06:13:33;101322.94;;;16.98;100.00
39265;BME280;42646;51.910;7.724;2023-08-17T06:16:02;101321.06;;;16.99;100.00
39265;BME280;42646;51.910;7.724;2023-08-17T06:18:55;101314.53;;;17.01;100.00
39265;BME280;42646;51.910;7.724;2023-08-17T06:21:23;101316.72;;;17.06;100.00
39265;BME280;42646;51.910;7.724;2023-08-17T06:23:54;101314.72;;;17.08;100.00
39265;BME280;42646;51.910;7.724;2023-08-17T06:26:25;101319.75;;;17.11;100.00
39265;BME280;42646;51.910;7.724;2023-08-17T06:28:53;101309.53;;;17.15;100.00
39265;BME280;42646;51.910;7.724;2023-08-17T06:31:21;101306.31;;;17.19;100.00
39265;BME280;42646;51.910;7.724;2023-08-17T06:33:53;101302.47;;;17.22;100.00
39265;BME280;42646;51.910;7.724;2023-08-17T06:36:22;101306.00;;;17.22;100.00
39265;BME280;42646;51.910;7.724;2023-08-17T06:39:15;101310.19;;;17.25;100.00
39265;BME280;42646;51.910;7.724;2023-08-17T06:41:45;101305.66;;;17.25;100.00
39265;BME280;42646;51.910;7.724;2023-08-17T06:44:12;101311.56;;;17.29;100.00
39265;BME280;42646;51.910;7.724;2023-08-17T06:47:04;101309.53;;;17.31;100.00
39265;BME280;42646;51.910;7.724;2023-08-17T06:49:32;101313.59;;;17.35;100.00
39265;BME280;42646;51.910;7.724;2023-08-17T06:52:01;101312.44;;;17.38;100.00
39265;BME280;42646;51.910;7.724;2023-08-17T06:54:30;101313.94;;;17.40;100.00
39265;BME280;42646;51.910;7.724;2023-08-17T06:57:00;101312.75;;;17.43;100.00
39265;BME280;42646;51.910;7.724;2023-08-17T06:59:27;101312.59;;;17.44;100.00
39265;BME280;42646;51.910;7.724;2023-08-17T07:01:56;101309.91;;;17.44;100.00
39265;BME280;42646;51.910;7.724;2023-08-17T07:04:24;101305.19;;;17.46;100.00
39265;BME280;42646;51.910;7.724;2023-08-17T07:06:52;101301.84;;;17.44;100.00
39265;BME280;42646;51.910;7.724;2023-08-17T07:09:21;101301.66;;;17.46;100.00
39265;BME280;42646;51.910;7.724;2023-08-17T07:11:49;101306.69;;;17.49;100.00
39265;BME280;42646;51.910;7.724;2023-08-17T07:14:20;101311.09;;;17.50;100.00
39265;BME280;42646;51.910;7.724;2023-08-17T07:16:49;101316.28;;;17.51;100.00
39265;BME280;42646;51.910;7.724;2023-08-17T07:19:18;101320.66;;;17.52;100.00
39265;BME280;42646;51.910;7.724;2023-08-17T07:21:53;101320.34;;;17.55;100.00
39265;BME280;42646;51.910;7.724;2023-08-17T07:24:21;101325.38;;;17.58;100.00
39265;BME280;42646;51.910;7.724;2023-08-17T07:26:49;101329.75;;;17.59;100.00
39265;BME280;42646;51.910;7.724;2023-08-17T07:29:19;101340.34;;;17.61;100.00
39265;BME280;42646;51.910;7.724;2023-08-17T07:31:48;101332.94;;;17.63;100.00
39265;BME280;42646;51.910;7.724;2023-08-17T07:34:16;101330.25;;;17.63;100.00
39265;BME280;42646;51.910;7.724;2023-08-17T07:36:45;101330.91;;;17.65;100.00
39265;BME280;42646;51.910;7.724;2023-08-17T07:39:13;101339.00;;;17.65;100.00
39265;BME280;42646;51.910;7.724;2023-08-17T07:41:42;101337.00;;;17.67;100.00
39265;BME280;42646;51.910;7.724;2023-08-17T07:44:10;101334.31;;;17.67;100.00
39265;BME280;42646;51.910;7.724;2023-08-17T07:46:40;101339.84;;;17.66;100.00
39265;BME280;42646;51.910;7.724;2023-08-17T07:49:09;101338.50;;;17.70;100.00
39265;BME280;42646;51.910;7.724;2023-08-17T07:51:59;101340.88;;;17.73;100.00
39265;BME280;42646;51.910;7.724;2023-08-17T07:54:27;101345.28;;;17.74;100.00
39265;BME280;42646;51.910;7.724;2023-08-17T07:56:56;101349.63;;;17.75;100.00
39265;BME280;42646;51.910;7.724;2023-08-17T07:59:24;101346.78;;;17.76;100.00
39265;BME280;42646;51.910;7.724;2023-08-17T08:01:53;101350.47;;;17.75;100.00
39265;BME280;42646;51.910;7.724;2023-08-17T08:04:21;101357.34;;;17.78;100.00
39265;BME280;42646;51.910;7.724;2023-08-17T08:06:49;101356.38;;;17.79;100.00
39265;BME280;42646;51.910;7.724;2023-08-17T08:09:20;101351.66;;;17.81;100.00
39265;BME280;42646;51.910;7.724;2023-08-17T08:11:48;101352.13;;;17.84;100.00
39265;BME280;42646;51.910;7.724;2023-08-17T08:14:16;101357.19;;;17.87;100.00
39265;BME280;42646;51.910;7.724;2023-08-17T08:16:44;101357.84;;;17.89;100.00
39265;BME280;42646;51.910;7.724;2023-08-17T08:19:15;101358.56;;;17.92;100.00
39265;BME280;42646;51.910;7.724;2023-08-17T08:21:42;101361.91;;;17.94;100.00
39265;BME280;42646;51.910;7.724;2023-08-17T08:24:11;101360.72;;;17.96;100.00
39265;BME280;42646;51.910;7.724;2023-08-17T08:26:56;101349.81;;;17.98;100.00
39265;BME280;42646;51.910;7.724;2023-08-17T08:29:24;101358.34;;;18.01;100.00
39265;BME280;42646;51.910;7.724;2023-08-17T08:31:52;101357.34;;;18.02;100.00
39265;BME280;42646;51.910;7.724;2023-08-17T08:34:21;101346.25;;;18.05;100.00
39265;BME280;42646;51.910;7.724;2023-08-17T08:36:49;101352.28;;;18.07;100.00
39265;BME280;42646;51.910;7.724;2023-08-17T08:39:17;101348.44;;;18.10;100.00
39265;BME280;42646;51.910;7.724;2023-08-17T08:41:45;101343.88;;;18.10;100.00
39265;BME280;42646;51.910;7.724;2023-08-17T08:44:13;101345.25;;;18.14;100.00
39265;BME280;42646;51.910;7.724;2023-08-17T08:46:44;101338.47;;;18.19;100.00
39265;BME280;42646;51.910;7.724;2023-08-17T08:49:19;101344.19;;;18.24;100.00
39265;BME280;42646;51.910;7.724;2023-08-17T08:51:50;101339.97;;;18.29;100.00
39265;BME280;42646;51.910;7.724;2023-08-17T08:54:21;101343.66;;;18.36;100.00
39265;BME280;42646;51.910;7.724;2023-08-17T08:56:53;101338.59;;;18.41;100.00
39265;BME280;42646;51.910;7.724;2023-08-17T08:59:26;101335.22;;;18.48;100.00
39265;BME280;42646;51.910;7.724;2023-08-17T09:01:55;101338.03;;;18.54;100.00
39265;BME280;42646;51.910;7.724;2023-08-17T09:04:28;101332.78;;;18.61;100.00
39265;BME280;42646;51.910;7.724;2023-08-17T09:07:00;101338.69;;;18.64;100.00
39265;BME280;42646;51.910;7.724;2023-08-17T09:09:55;101340.72;;;18.71;100.00
39265;BME280;42646;51.910;7.724;2023-08-17T09:12:24;101343.03;;;18.74;100.00
39265;BME280;42646;51.910;7.724;2023-08-17T09:15:06;101344.56;;;18.76;100.00
39265;BME280;42646;51.910;7.724;2023-08-17T09:17:34;101346.06;;;18.79;100.00
39265;BME280;42646;51.910;7.724;2023-08-17T09:20:03;101339.50;;;18.81;100.00
39265;BME280;42646;51.910;7.724;2023-08-17T09:22:39;101338.28;;;18.84;100.00
39265;BME280;42646;51.910;7.724;2023-08-17T09:25:07;101333.75;;;18.84;100.00
39265;BME280;42646;51.910;7.724;2023-08-17T09:27:37;101329.88;;;18.87;100.00
39265;BME280;42646;51.910;7.724;2023-08-17T09:30:06;101327.00;;;18.88;100.00
39265;BME280;42646;51.910;7.724;2023-08-17T09:32:34;101327.50;;;18.92;100.00
39265;BME280;42646;51.910;7.724;2023-08-17T09:35:03;101325.63;;;18.92;100.00
39265;BME280;42646;51.910;7.724;2023-08-17T09:37:33;101325.44;;;18.94;100.00
39265;BME280;42646;51.910;7.724;2023-08-17T09:40:03;101322.94;;;18.92;100.00
39265;BME280;42646;51.910;7.724;2023-08-17T09:42:34;101315.69;;;18.93;100.00
39265;BME280;42646;51.910;7.724;2023-08-17T09:45:02;101322.56;;;18.95;100.00
39265;BME280;42646;51.910;7.724;2023-08-17T09:47:30;101323.06;;;18.99;100.00
39265;BME280;42646;51.910;7.724;2023-08-17T09:49:59;101322.88;;;19.01;100.00
39265;BME280;42646;51.910;7.724;2023-08-17T09:52:28;101313.59;;;19.03;100.00
39265;BME280;42646;51.910;7.724;2023-08-17T09:54:58;101312.41;;;19.06;100.00
39265;BME280;42646;51.910;7.724;2023-08-17T09:57:37;101314.91;;;19.07;100.00
39265;BME280;42646;51.910;7.724;2023-08-17T10:00:08;101313.75;;;19.10;100.00
39265;BME280;42646;51.910;7.724;2023-08-17T10:02:36;101323.31;;;19.12;100.00
39265;BME280;42646;51.910;7.724;2023-08-17T10:05:05;101322.28;;;19.13;100.00
39265;BME280;42646;51.910;7.724;2023-08-17T10:07:37;101327.34;;;19.16;100.00
39265;BME280;42646;51.910;7.724;2023-08-17T10:10:07;101324.28;;;19.19;100.00
39265;BME280;42646;51.910;7.724;2023-08-17T10:12:37;101320.75;;;19.19;100.00
39265;BME280;42646;51.910;7.724;2023-08-17T10:15:11;101323.25;;;19.20;100.00
39265;BME280;42646;51.910;7.724;2023-08-17T10:17:49;101316.69;;;19.23;100.00
39265;BME280;42646;51.910;7.724;2023-08-17T10:20:22;101328.13;;;19.25;100.00
39265;BME280;42646;51.910;7.724;2023-08-17T10:22:58;101317.34;;;19.25;100.00
39265;BME280;42646;51.910;7.724;2023-08-17T10:25:31;101318.00;;;19.27;100.00
39265;BME280;42646;51.910;7.724;2023-08-17T10:28:02;101319.31;;;19.31;100.00
39265;BME280;42646;51.910;7.724;2023-08-17T10:30:30;101319.63;;;19.36;100.00
39265;BME280;42646;51.910;7.724;2023-08-17T10:33:00;101313.19;;;19.37;100.00
39265;BME280;42646;51.910;7.724;2023-08-17T10:35:31;101322.63;;;19.41;100.00
39265;BME280;42646;51.910;7.724;2023-08-17T10:38:00;101323.13;;;19.45;100.00
39265;BME280;42646;51.910;7.724;2023-08-17T10:40:37;101324.41;;;19.49;100.00
39265;BME280;42646;51.910;7.724;2023-08-17T10:43:06;101320.69;;;19.50;100.00
39265;BME280;42646;51.910;7.724;2023-08-17T10:45:35;101318.47;;;19.54;100.00
39265;BME280;42646;51.910;7.724;2023-08-17T10:48:27;101317.44;;;19.55;100.00
39265;BME280;42646;51.910;7.724;2023-08-17T10:51:01;101314.75;;;19.55;100.00
39265;BME280;42646;51.910;7.724;2023-08-17T10:53:34;101322.66;;;19.56;100.00
39265;BME280;42646;51.910;7.724;2023-08-17T10:56:11;101313.72;;;19.56;100.00
39265;BME280;42646;51.910;7.724;2023-08-17T10:59:24;101318.13;;;19.57;100.00
39265;BME280;42646;51.910;7.724;2023-08-17T11:01:53;101319.13;;;19.56;100.00
39265;BME280;42646;51.910;7.724;2023-08-17T11:04:21;101324.38;;;19.57;100.00
39265;BME280;42646;51.910;7.724;2023-08-17T11:07:01;101323.38;;;19.58;100.00
39265;BME280;42646;51.910;7.724;2023-08-17T11:09:30;101325.19;;;19.58;100.00
39265;BME280;42646;51.910;7.724;2023-08-17T11:12:00;101328.94;;;19.57;100.00
39265;BME280;42646;51.910;7.724;2023-08-17T11:14:33;101324.38;;;19.57;100.00
39265;BME280;42646;51.910;7.724;2023-08-17T11:17:03;101321.66;;;19.57;100.00
39265;BME280;42646;51.910;7.724;2023-08-17T11:19:32;101325.88;;;19.60;100.00
39265;BME280;42646;51.910;7.724;2023-08-17T11:22:00;101323.84;;;19.62;100.00
39265;BME280;42646;51.910;7.724;2023-08-17T11:24:28;101322.66;;;19.64;100.00
39265;BME280;42646;51.910;7.724;2023-08-17T11:26:56;101327.22;;;19.64;100.00
39265;BME280;42646;51.910;7.724;2023-08-17T11:29:24;101324.31;;;19.65;100.00
39265;BME280;42646;51.910;7.724;2023-08-17T11:31:54;101327.03;;;19.65;100.00
39265;BME280;42646;51.910;7.724;2023-08-17T11:34:23;101326.19;;;19.65;100.00
39265;BME280;42646;51.910;7.724;2023-08-17T11:36:50;101327.66;;;19.67;100.00
39265;BME280;42646;51.910;7.724;2023-08-17T11:39:18;101330.75;;;19.64;100.00
39265;BME280;42646;51.910;7.724;2023-08-17T11:41:48;101321.13;;;19.62;100.00
39265;BME280;42646;51.910;7.724;2023-08-17T11:44:18;101323.69;;;19.63;100.00
39265;BME280;42646;51.910;7.724;2023-08-17T11:46:55;101321.81;;;19.64;100.00
39265;BME280;42646;51.910;7.724;2023-08-17T11:49:22;101324.50;;;19.64;100.00
39265;BME280;42646;51.910;7.724;2023-08-17T11:51:51;101317.44;;;19.63;100.00
39265;BME280;42646;51.910;7.724;2023-08-17T11:54:20;101313.72;;;19.64;100.00
39265;BME280;42646;51.910;7.724;2023-08-17T11:56:49;101316.41;;;19.64;100.00
39265;BME280;42646;51.910;7.724;2023-08-17T11:59:19;101313.72;;;19.64;100.00
39265;BME280;42646;51.910;7.724;2023-08-17T12:01:48;101320.97;;;19.63;100.00
39265;BME280;42646;51.910;7.724;2023-08-17T12:04:21;101313.72;;;19.64;100.00
39265;BME280;42646;51.910;7.724;2023-08-17T12:06:48;101318.91;;;19.65;100.00
39265;BME280;42646;51.910;7.724;2023-08-17T12:09:18;101315.38;;;19.65;100.00
39265;BME280;42646;51.910;7.724;2023-08-17T12:11:45;101322.84;;;19.63;100.00
39265;BME280;42646;51.910;7.724;2023-08-17T12:14:13;101324.66;;;19.62;100.00
39265;BME280;42646;51.910;7.724;2023-08-17T12:16:45;101329.91;;;19.64;100.00
39265;BME280;42646;51.910;7.724;2023-08-17T12:19:14;101334.63;;;19.62;100.00
39265;BME280;42646;51.910;7.724;2023-08-17T12:21:45;101334.81;;;19.60;100.00
39265;BME280;42646;51.910;7.724;2023-08-17T12:24:14;101325.03;;;19.59;100.00
39265;BME280;42646;51.910;7.724;2023-08-17T12:26:43;101336.50;;;19.61;100.00
39265;BME280;42646;51.910;7.724;2023-08-17T12:29:12;101333.44;;;19.64;100.00
39265;BME280;42646;51.910;7.724;2023-08-17T12:31:42;101331.41;;;19.66;100.00
39265;BME280;42646;51.910;7.724;2023-08-17T12:34:10;101328.50;;;19.68;100.00
39265;BME280;42646;51.910;7.724;2023-08-17T12:36:38;101325.66;;;19.69;100.00
39265;BME280;42646;51.910;7.724;2023-08-17T12:39:08;101323.94;;;19.68;100.00
39265;BME280;42646;51.910;7.724;2023-08-17T12:41:35;101324.81;;;19.69;100.00
39265;BME280;42646;51.910;7.724;2023-08-17T12:44:04;101323.94;;;19.68;100.00
39265;BME280;42646;51.910;7.724;2023-08-17T12:46:31;101324.97;;;19.67;100.00
39265;BME280;42646;51.910;7.724;2023-08-17T12:49:23;101318.53;;;19.68;100.00
39265;BME280;42646;51.910;7.724;2023-08-17T12:51:51;101331.88;;;19.70;100.00
39265;BME280;42646;51.910;7.724;2023-08-17T12:54:21;101329.84;;;19.72;100.00
39265;BME280;42646;51.910;7.724;2023-08-17T12:56:48;101327.13;;;19.72;100.00
39265;BME280;42646;51.910;7.724;2023-08-17T12:59:16;101321.72;;;19.72;100.00